sensor_id;sensor_type;location;lat;lon;timestamp;pressure;altitude;pressure_sealevel;temperature;humidity
50125;BME280;36023;48.670;6.184;2023-05-25T00:01:48;99402.47;;;21.53;32.37
50125;BME280;36023;48.670;6.184;2023-05-25T00:04:13;99407.75;;;21.53;32.42
50125;BME280;36023;48.670;6.184;2023-05-25T00:06:41;99405.22;;;21.52;32.52
50125;BME280;36023;48.670;6.184;2023-05-25T00:09:12;99400.78;;;21.52;32.56
50125;BME280;36023;48.670;6.184;2023-05-25T00:11:38;99400.03;;;21.50;32.50
50125;BME280;36023;48.670;6.184;2023-05-25T00:14:03;99398.25;;;21.51;32.31
50125;BME280;36023;48.670;6.184;2023-05-25T00:16:29;99403.53;;;21.51;32.50
50125;BME280;36023;48.670;6.184;2023-05-25T00:18:56;99404.47;;;21.50;32.42
50125;BME280;36023;48.670;6.184;2023-05-25T00:21:22;99397.41;;;21.50;32.48
50125;BME280;36023;48.670;6.184;2023-05-25T00:23:48;99398.34;;;21.49;32.37
50125;BME280;36023;48.670;6.184;2023-05-25T00:26:14;99396.66;;;21.48;32.27
50125;BME280;36023;48.670;6.184;2023-05-25T00:28:40;99386.97;;;21.49;32.33
50125;BME280;36023;48.670;6.184;2023-05-25T00:31:06;99386.13;;;21.48;32.40
50125;BME280;36023;48.670;6.184;2023-05-25T00:33:31;99384.38;;;21.47;32.36
50125;BME280;36023;48.670;6.184;2023-05-25T00:35:57;99384.38;;;21.47;32.45
50125;BME280;36023;48.670;6.184;2023-05-25T00:38:24;99383.53;;;21.47;32.33
50125;BME280;36023;48.670;6.184;2023-05-25T00:40:54;99386.19;;;21.47;32.14
50125;BME280;36023;48.670;6.184;2023-05-25T00:43:20;99384.50;;;21.46;32.07
50125;BME280;36023;48.670;6.184;2023-05-25T00:45:48;99383.66;;;21.45;32.30
50125;BME280;36023;48.670;6.184;2023-05-25T00:48:16;99389.84;;;21.44;32.16
50125;BME280;36023;48.670;6.184;2023-05-25T00:50:43;99395.97;;;21.45;32.18
50125;BME280;36023;48.670;6.184;2023-05-25T00:53:12;99384.59;;;21.44;32.23
50125;BME280;36023;48.670;6.184;2023-05-25T00:58:26;99395.13;;;21.44;32.15
50125;BME280;36023;48.670;6.184;2023-05-25T01:00:53;99386.38;;;21.44;32.27
50125;BME280;36023;48.670;6.184;2023-05-25T01:03:23;99381.19;;;21.42;32.05
50125;BME280;36023;48.670;6.184;2023-05-25T01:05:53;99375.94;;;21.42;32.16
50125;BME280;36023;48.670;6.184;2023-05-25T01:08:21;99386.47;;;21.42;31.92
50125;BME280;36023;48.670;6.184;2023-05-25T01:10:48;99375.09;;;21.41;32.17
50125;BME280;36023;48.670;6.184;2023-05-25T01:13:19;99378.66;;;21.40;31.96
50125;BME280;36023;48.670;6.184;2023-05-25T01:15:46;99381.31;;;21.40;32.03
50125;BME280;36023;48.670;6.184;2023-05-25T01:18:15;99382.22;;;21.39;31.81
50125;BME280;36023;48.670;6.184;2023-05-25T01:20:58;99378.72;;;21.39;31.61
50125;BME280;36023;48.670;6.184;2023-05-25T01:23:32;99382.31;;;21.38;31.69
50125;BME280;36023;48.670;6.184;2023-05-25T01:26:02;99372.72;;;21.37;31.71
50125;BME280;36023;48.670;6.184;2023-05-25T01:28:37;99379.69;;;21.38;31.93
50125;BME280;36023;48.670;6.184;2023-05-25T01:31:06;99380.63;;;21.37;31.43
50125;BME280;36023;48.670;6.184;2023-05-25T01:33:35;99380.63;;;21.37;31.52
50125;BME280;36023;48.670;6.184;2023-05-25T01:36:02;99380.63;;;21.37;31.61
50125;BME280;36023;48.670;6.184;2023-05-25T01:38:28;99382.41;;;21.36;31.60
50125;BME280;36023;48.670;6.184;2023-05-25T01:40:54;99382.41;;;21.36;31.69
50125;BME280;36023;48.670;6.184;2023-05-25T01:43:20;99377.97;;;21.37;31.56
50125;BME280;36023;48.670;6.184;2023-05-25T01:45:46;99380.63;;;21.37;31.43
50125;BME280;36023;48.670;6.184;2023-05-25T01:50:53;99396.44;;;21.37;31.58
50125;BME280;36023;48.670;6.184;2023-05-25T01:53:25;99394.75;;;21.36;31.61
50125;BME280;36023;48.670;6.184;2023-05-25T01:55:54;99404.44;;;21.35;31.48
50125;BME280;36023;48.670;6.184;2023-05-25T01:58:24;99393.88;;;21.35;31.62
50125;BME280;36023;48.670;6.184;2023-05-25T02:00:51;99399.16;;;21.35;31.58
50125;BME280;36023;48.670;6.184;2023-05-25T02:03:18;99404.53;;;21.34;31.52
50125;BME280;36023;48.670;6.184;2023-05-25T02:05:46;99407.16;;;21.34;31.60
50125;BME280;36023;48.670;6.184;2023-05-25T02:08:12;99397.47;;;21.34;31.71
50125;BME280;36023;48.670;6.184;2023-05-25T02:10:37;99402.84;;;21.33;31.44
50125;BME280;36023;48.670;6.184;2023-05-25T02:13:03;99405.47;;;21.33;31.54
50125;BME280;36023;48.670;6.184;2023-05-25T02:15:30;99396.72;;;21.32;31.50
50125;BME280;36023;48.670;6.184;2023-05-25T02:17:56;99389.66;;;21.33;31.48
50125;BME280;36023;48.670;6.184;2023-05-25T02:20:27;99400.19;;;21.33;31.56
50125;BME280;36023;48.670;6.184;2023-05-25T02:22:52;99389.72;;;21.31;31.50
50125;BME280;36023;48.670;6.184;2023-05-25T02:25:18;99388.88;;;21.31;31.52
50125;BME280;36023;48.670;6.184;2023-05-25T02:27:44;99392.47;;;21.30;31.43
50125;BME280;36023;48.670;6.184;2023-05-25T02:30:10;99391.50;;;21.31;31.49
50125;BME280;36023;48.670;6.184;2023-05-25T02:32:35;99399.41;;;21.31;31.65
50125;BME280;36023;48.670;6.184;2023-05-25T02:35:02;99402.16;;;21.29;31.42
50125;BME280;36023;48.670;6.184;2023-05-25T02:37:29;99401.31;;;21.29;31.50
50125;BME280;36023;48.670;6.184;2023-05-25T02:39:55;99393.50;;;21.27;31.49
50125;BME280;36023;48.670;6.184;2023-05-25T02:42:21;99402.25;;;21.28;31.58
50125;BME280;36023;48.670;6.184;2023-05-25T02:44:46;99398.75;;;21.27;31.34
50125;BME280;36023;48.670;6.184;2023-05-25T02:47:14;99396.97;;;21.28;31.69
50125;BME280;36023;48.670;6.184;2023-05-25T02:49:40;99403.16;;;21.27;31.43
50125;BME280;36023;48.670;6.184;2023-05-25T02:52:09;99406.72;;;21.26;31.44
50125;BME280;36023;48.670;6.184;2023-05-25T02:54:35;99403.16;;;21.27;31.85
50125;BME280;36023;48.670;6.184;2023-05-25T02:57:02;99403.25;;;21.25;31.44
50125;BME280;36023;48.670;6.184;2023-05-25T02:59:29;99409.44;;;21.24;31.41
50125;BME280;36023;48.670;6.184;2023-05-25T03:01:59;99408.53;;;21.25;31.48
50125;BME280;36023;48.670;6.184;2023-05-25T03:04:25;99405.03;;;21.25;31.46
50125;BME280;36023;48.670;6.184;2023-05-25T03:06:52;99413.84;;;21.24;31.51
50125;BME280;36023;48.670;6.184;2023-05-25T03:09:18;99412.16;;;21.23;31.39
50125;BME280;36023;48.670;6.184;2023-05-25T03:11:46;99413.00;;;21.23;31.56
50125;BME280;36023;48.670;6.184;2023-05-25T03:14:15;99422.69;;;21.23;31.15
50125;BME280;36023;48.670;6.184;2023-05-25T03:16:44;99428.81;;;21.23;31.47
50125;BME280;36023;48.670;6.184;2023-05-25T03:19:10;99420.16;;;21.21;31.40
50125;BME280;36023;48.670;6.184;2023-05-25T03:21:37;99425.53;;;21.20;31.43
50125;BME280;36023;48.670;6.184;2023-05-25T03:24:06;99429.84;;;21.21;31.22
50125;BME280;36023;48.670;6.184;2023-05-25T03:26:32;99423.72;;;21.20;31.39
50125;BME280;36023;48.670;6.184;2023-05-25T03:28:59;99436.91;;;21.20;31.66
50125;BME280;36023;48.670;6.184;2023-05-25T03:31:27;99432.56;;;21.19;31.43
50125;BME280;36023;48.670;6.184;2023-05-25T03:34:11;99437.00;;;21.19;31.54
50125;BME280;36023;48.670;6.184;2023-05-25T03:36:37;99439.63;;;21.19;31.35
50125;BME280;36023;48.670;6.184;2023-05-25T03:39:04;99435.22;;;21.19;31.53
50125;BME280;36023;48.670;6.184;2023-05-25T03:41:30;99429.09;;;21.19;31.53
50125;BME280;36023;48.670;6.184;2023-05-25T03:43:56;99431.72;;;21.19;31.46
50125;BME280;36023;48.670;6.184;2023-05-25T03:46:23;99430.88;;;21.18;31.64
50125;BME280;36023;48.670;6.184;2023-05-25T03:48:48;99426.47;;;21.19;31.72
50125;BME280;36023;48.670;6.184;2023-05-25T03:51:15;99428.25;;;21.18;31.67
50125;BME280;36023;48.670;6.184;2023-05-25T03:53:41;99435.31;;;21.18;31.87
50125;BME280;36023;48.670;6.184;2023-05-25T03:56:06;99437.00;;;21.19;31.57
50125;BME280;36023;48.670;6.184;2023-05-25T03:58:35;99443.13;;;21.19;31.81
50125;BME280;36023;48.670;6.184;2023-05-25T04:01:02;99443.22;;;21.18;31.53
50125;BME280;36023;48.670;6.184;2023-05-25T04:03:28;99444.13;;;21.17;31.75
50125;BME280;36023;48.670;6.184;2023-05-25T04:05:54;99444.13;;;21.17;31.93
50125;BME280;36023;48.670;6.184;2023-05-25T04:08:22;99452.00;;;21.17;31.93
50125;BME280;36023;48.670;6.184;2023-05-25T04:10:49;99450.31;;;21.15;31.82
50125;BME280;36023;48.670;6.184;2023-05-25T04:13:14;99445.06;;;21.15;31.86
50125;BME280;36023;48.670;6.184;2023-05-25T04:15:40;99450.31;;;21.15;31.93
50125;BME280;36023;48.670;6.184;2023-05-25T04:18:14;99460.00;;;21.15;32.12
50125;BME280;36023;48.670;6.184;2023-05-25T04:20:40;99453.91;;;21.14;32.29
50125;BME280;36023;48.670;6.184;2023-05-25T04:23:08;99464.53;;;21.13;32.13
50125;BME280;36023;48.670;6.184;2023-05-25T04:25:34;99466.31;;;21.12;32.34
50125;BME280;36023;48.670;6.184;2023-05-25T04:28:03;99469.88;;;21.11;32.15
50125;BME280;36023;48.670;6.184;2023-05-25T04:30:51;99476.94;;;21.11;31.97
50125;BME280;36023;48.670;6.184;2023-05-25T04:33:32;99469.03;;;21.11;32.05
50125;BME280;36023;48.670;6.184;2023-05-25T04:36:13;99476.09;;;21.10;32.35
50125;BME280;36023;48.670;6.184;2023-05-25T04:38:39;99473.38;;;21.12;32.41
50125;BME280;36023;48.670;6.184;2023-05-25T04:41:07;99472.63;;;21.10;32.46
50125;BME280;36023;48.670;6.184;2023-05-25T04:43:33;99473.47;;;21.10;32.60
50125;BME280;36023;48.670;6.184;2023-05-25T04:46:00;99470.94;;;21.09;32.60
50125;BME280;36023;48.670;6.184;2023-05-25T04:48:28;99471.84;;;21.08;32.18
50125;BME280;36023;48.670;6.184;2023-05-25T04:50:56;99477.09;;;21.08;32.48
50125;BME280;36023;48.670;6.184;2023-05-25T04:53:22;99482.38;;;21.08;32.57
50125;BME280;36023;48.670;6.184;2023-05-25T04:55:48;99482.47;;;21.06;32.39
50125;BME280;36023;48.670;6.184;2023-05-25T04:58:14;99484.16;;;21.07;32.31
50125;BME280;36023;48.670;6.184;2023-05-25T05:00:41;99486.88;;;21.06;32.38
50125;BME280;36023;48.670;6.184;2023-05-25T05:03:07;99486.88;;;21.06;32.12
50125;BME280;36023;48.670;6.184;2023-05-25T05:05:34;99472.88;;;21.05;32.45
50125;BME280;36023;48.670;6.184;2023-05-25T05:08:02;99467.69;;;21.04;32.19
50125;BME280;36023;48.670;6.184;2023-05-25T05:10:28;99487.91;;;21.03;32.14
50125;BME280;36023;48.670;6.184;2023-05-25T05:12:56;99486.13;;;21.04;32.34
50125;BME280;36023;48.670;6.184;2023-05-25T05:15:21;99487.81;;;21.05;32.18
50125;BME280;36023;48.670;6.184;2023-05-25T05:17:48;99501.00;;;21.05;32.18
50125;BME280;36023;48.670;6.184;2023-05-25T05:20:14;99489.69;;;21.03;31.96
50125;BME280;36023;48.670;6.184;2023-05-25T05:22:40;99491.50;;;21.02;32.14
50125;BME280;36023;48.670;6.184;2023-05-25T05:25:06;99495.91;;;21.02;32.28
50125;BME280;36023;48.670;6.184;2023-05-25T05:27:33;99492.44;;;21.01;32.34
50125;BME280;36023;48.670;6.184;2023-05-25T05:30:05;99500.31;;;21.01;32.08
50125;BME280;36023;48.670;6.184;2023-05-25T05:32:31;99508.22;;;21.01;32.07
50125;BME280;36023;48.670;6.184;2023-05-25T05:34:59;99503.00;;;21.00;32.21
50125;BME280;36023;48.670;6.184;2023-05-25T05:37:36;99506.50;;;21.00;32.31
50125;BME280;36023;48.670;6.184;2023-05-25T05:40:05;99509.13;;;21.00;32.27
50125;BME280;36023;48.670;6.184;2023-05-25T05:42:32;99512.69;;;20.99;32.08
50125;BME280;36023;48.670;6.184;2023-05-25T05:44:58;99510.06;;;20.99;32.35
50125;BME280;36023;48.670;6.184;2023-05-25T05:47:24;99507.44;;;20.99;32.34
50125;BME280;36023;48.670;6.184;2023-05-25T05:49:50;99510.06;;;20.99;32.33
50125;BME280;36023;48.670;6.184;2023-05-25T05:52:16;99506.59;;;20.99;32.38
50125;BME280;36023;48.670;6.184;2023-05-25T05:54:41;99515.34;;;20.99;32.34
50125;BME280;36023;48.670;6.184;2023-05-25T05:57:10;99512.69;;;20.99;32.64
50125;BME280;36023;48.670;6.184;2023-05-25T05:59:37;99514.50;;;20.99;32.46
50125;BME280;36023;48.670;6.184;2023-05-25T06:02:03;99516.19;;;21.00;32.70
50125;BME280;36023;48.670;6.184;2023-05-25T06:04:29;99517.13;;;20.99;32.68
50125;BME280;36023;48.670;6.184;2023-05-25T06:06:57;99516.28;;;20.98;32.46
50125;BME280;36023;48.670;6.184;2023-05-25T06:09:24;99518.91;;;20.98;32.56
50125;BME280;36023;48.670;6.184;2023-05-25T06:11:57;99516.38;;;20.97;32.73
50125;BME280;36023;48.670;6.184;2023-05-25T06:14:23;99507.63;;;20.96;32.82
50125;BME280;36023;48.670;6.184;2023-05-25T06:16:48;99512.88;;;20.96;32.62
50125;BME280;36023;48.670;6.184;2023-05-25T06:19:15;99516.38;;;20.97;32.71
50125;BME280;36023;48.670;6.184;2023-05-25T06:21:41;99517.31;;;20.96;32.92
50125;BME280;36023;48.670;6.184;2023-05-25T06:24:07;99508.56;;;20.95;32.88
50125;BME280;36023;48.670;6.184;2023-05-25T06:26:35;99512.03;;;20.96;32.80
50125;BME280;36023;48.670;6.184;2023-05-25T06:29:00;99507.72;;;20.95;32.99
50125;BME280;36023;48.670;6.184;2023-05-25T06:31:26;99510.25;;;20.96;33.02
50125;BME280;36023;48.670;6.184;2023-05-25T06:33:52;99515.53;;;20.96;32.97
50125;BME280;36023;48.670;6.184;2023-05-25T06:36:18;99519.84;;;20.97;33.07
50125;BME280;36023;48.670;6.184;2023-05-25T06:38:44;99516.38;;;20.97;33.11
50125;BME280;36023;48.670;6.184;2023-05-25T06:41:14;99513.81;;;20.95;33.18
50125;BME280;36023;48.670;6.184;2023-05-25T06:43:40;99508.47;;;20.97;33.24
50125;BME280;36023;48.670;6.184;2023-05-25T06:46:11;99515.53;;;20.96;33.47
50125;BME280;36023;48.670;6.184;2023-05-25T06:48:42;99511.94;;;20.97;33.65
50125;BME280;36023;48.670;6.184;2023-05-25T06:51:08;99507.34;;;21.01;34.08
50125;BME280;36023;48.670;6.184;2023-05-25T06:53:34;99501.84;;;21.05;34.51
50125;BME280;36023;48.670;6.184;2023-05-25T06:56:00;99507.84;;;21.07;34.71
50125;BME280;36023;48.670;6.184;2023-05-25T06:58:27;99505.22;;;21.07;35.09
50125;BME280;36023;48.670;6.184;2023-05-25T07:00:53;99515.69;;;21.09;35.15
50125;BME280;36023;48.670;6.184;2023-05-25T07:03:19;99512.19;;;21.08;35.45
50125;BME280;36023;48.670;6.184;2023-05-25T07:05:45;99519.22;;;21.08;35.52
50125;BME280;36023;48.670;6.184;2023-05-25T07:08:11;99526.28;;;21.07;35.76
50125;BME280;36023;48.670;6.184;2023-05-25T07:10:36;99534.97;;;21.09;36.01
50125;BME280;36023;48.670;6.184;2023-05-25T07:13:02;99520.97;;;21.09;35.92
50125;BME280;36023;48.670;6.184;2023-05-25T07:15:27;99525.34;;;21.08;36.13
50125;BME280;36023;48.670;6.184;2023-05-25T07:17:54;99525.34;;;21.08;36.00
50125;BME280;36023;48.670;6.184;2023-05-25T07:20:22;99518.38;;;21.07;36.47
50125;BME280;36023;48.670;6.184;2023-05-25T07:22:48;99525.44;;;21.07;36.49
50125;BME280;36023;48.670;6.184;2023-05-25T07:25:14;99523.66;;;21.07;36.63
50125;BME280;36023;48.670;6.184;2023-05-25T07:27:41;99516.69;;;21.06;36.56
50125;BME280;36023;48.670;6.184;2023-05-25T07:30:09;99512.38;;;21.05;36.53
50125;BME280;36023;48.670;6.184;2023-05-25T07:32:35;99513.31;;;21.04;36.55
50125;BME280;36023;48.670;6.184;2023-05-25T07:35:02;99512.38;;;21.05;36.85
50125;BME280;36023;48.670;6.184;2023-05-25T07:37:29;99511.53;;;21.05;36.72
50125;BME280;36023;48.670;6.184;2023-05-25T07:39:56;99510.66;;;21.04;36.86
50125;BME280;36023;48.670;6.184;2023-05-25T07:42:21;99512.47;;;21.04;36.88
50125;BME280;36023;48.670;6.184;2023-05-25T07:44:47;99512.38;;;21.05;36.99
50125;BME280;36023;48.670;6.184;2023-05-25T07:47:13;99516.88;;;21.03;36.94
50125;BME280;36023;48.670;6.184;2023-05-25T07:49:39;99516.97;;;21.02;36.92
50125;BME280;36023;48.670;6.184;2023-05-25T07:52:05;99523.09;;;21.02;36.95
50125;BME280;36023;48.670;6.184;2023-05-25T07:54:31;99524.88;;;21.02;37.12
50125;BME280;36023;48.670;6.184;2023-05-25T07:56:57;99531.03;;;21.01;36.98
50125;BME280;36023;48.670;6.184;2023-05-25T07:59:25;99530.19;;;21.00;37.13
50125;BME280;36023;48.670;6.184;2023-05-25T08:01:51;99526.66;;;21.01;37.26
50125;BME280;36023;48.670;6.184;2023-05-25T08:04:17;99531.03;;;21.01;37.12
50125;BME280;36023;48.670;6.184;2023-05-25T08:06:43;99516.19;;;21.00;37.21
50125;BME280;36023;48.670;6.184;2023-05-25T08:09:10;99512.63;;;21.01;37.34
50125;BME280;36023;48.670;6.184;2023-05-25T08:11:37;99523.94;;;21.03;37.98
50125;BME280;36023;48.670;6.184;2023-05-25T08:14:04;99526.56;;;21.03;37.70
50125;BME280;36023;48.670;6.184;2023-05-25T08:16:29;99530.03;;;21.03;37.46
50125;BME280;36023;48.670;6.184;2023-05-25T08:18:55;99524.03;;;21.01;37.55
50125;BME280;36023;48.670;6.184;2023-05-25T08:21:21;99527.56;;;21.00;37.54
50125;BME280;36023;48.670;6.184;2023-05-25T08:23:46;99521.44;;;21.00;37.48
50125;BME280;36023;48.670;6.184;2023-05-25T08:26:12;99532.84;;;21.00;37.48
50125;BME280;36023;48.670;6.184;2023-05-25T08:28:37;99531.97;;;21.00;37.54
50125;BME280;36023;48.670;6.184;2023-05-25T08:31:03;99532.91;;;20.99;37.53
50125;BME280;36023;48.670;6.184;2023-05-25T08:33:30;99541.66;;;20.99;37.53
50125;BME280;36023;48.670;6.184;2023-05-25T08:35:55;99539.97;;;20.98;37.61
50125;BME280;36023;48.670;6.184;2023-05-25T08:38:21;99539.97;;;20.98;37.56
50125;BME280;36023;48.670;6.184;2023-05-25T08:41:06;99545.25;;;20.98;37.46
50125;BME280;36023;48.670;6.184;2023-05-25T08:43:32;99540.06;;;20.97;37.62
50125;BME280;36023;48.670;6.184;2023-05-25T08:46:05;99542.53;;;21.00;37.64
50125;BME280;36023;48.670;6.184;2023-05-25T08:48:32;99544.41;;;20.98;37.61
50125;BME280;36023;48.670;6.184;2023-05-25T08:51:03;99534.72;;;20.98;37.75
50125;BME280;36023;48.670;6.184;2023-05-25T08:53:38;99547.78;;;21.00;37.88
50125;BME280;36023;48.670;6.184;2023-05-25T08:56:10;99547.88;;;20.98;37.75
50125;BME280;36023;48.670;6.184;2023-05-25T08:58:44;99543.47;;;20.99;37.71
50125;BME280;36023;48.670;6.184;2023-05-25T09:01:14;99546.09;;;20.99;37.85
50125;BME280;36023;48.670;6.184;2023-05-25T09:03:42;99552.19;;;20.99;37.75
50125;BME280;36023;48.670;6.184;2023-05-25T09:06:11;99548.72;;;20.99;38.00
50125;BME280;36023;48.670;6.184;2023-05-25T09:08:37;99552.19;;;20.99;37.98
50125;BME280;36023;48.670;6.184;2023-05-25T09:11:05;99549.56;;;20.99;37.93
50125;BME280;36023;48.670;6.184;2023-05-25T09:13:31;99558.31;;;21.00;38.04
50125;BME280;36023;48.670;6.184;2023-05-25T09:15:57;99556.53;;;21.00;37.98
50125;BME280;36023;48.670;6.184;2023-05-25T09:18:23;99551.25;;;21.00;38.12
50125;BME280;36023;48.670;6.184;2023-05-25T09:20:49;99551.25;;;21.00;38.18
50125;BME280;36023;48.670;6.184;2023-05-25T09:23:15;99556.47;;;21.02;38.03
50125;BME280;36023;48.670;6.184;2023-05-25T09:25:40;99550.34;;;21.01;38.06
50125;BME280;36023;48.670;6.184;2023-05-25T09:28:07;99549.41;;;21.02;38.25
50125;BME280;36023;48.670;6.184;2023-05-25T09:30:35;99542.38;;;21.03;38.25
50125;BME280;36023;48.670;6.184;2023-05-25T09:33:14;99541.44;;;21.04;38.37
50125;BME280;36023;48.670;6.184;2023-05-25T09:35:44;99550.19;;;21.04;38.21
50125;BME280;36023;48.670;6.184;2023-05-25T09:38:13;99552.72;;;21.06;38.27
50125;BME280;36023;48.670;6.184;2023-05-25T09:40:39;99548.38;;;21.05;38.35
50125;BME280;36023;48.670;6.184;2023-05-25T09:43:05;99549.25;;;21.05;38.52
50125;BME280;36023;48.670;6.184;2023-05-25T09:45:31;99550.09;;;21.06;38.48
50125;BME280;36023;48.670;6.184;2023-05-25T09:47:57;99543.03;;;21.06;38.54
50125;BME280;36023;48.670;6.184;2023-05-25T09:50:26;99557.91;;;21.07;38.64
50125;BME280;36023;48.670;6.184;2023-05-25T09:53:01;99556.97;;;21.08;38.71
50125;BME280;36023;48.670;6.184;2023-05-25T09:55:27;99547.34;;;21.07;38.79
50125;BME280;36023;48.670;6.184;2023-05-25T09:57:54;99550.00;;;21.07;38.72
50125;BME280;36023;48.670;6.184;2023-05-25T10:00:22;99548.22;;;21.08;38.60
50125;BME280;36023;48.670;6.184;2023-05-25T10:02:48;99556.09;;;21.08;38.84
50125;BME280;36023;48.670;6.184;2023-05-25T10:05:14;99557.84;;;21.09;38.86
50125;BME280;36023;48.670;6.184;2023-05-25T10:07:41;99556.09;;;21.08;38.98
50125;BME280;36023;48.670;6.184;2023-05-25T10:10:09;99568.38;;;21.09;38.73
50125;BME280;36023;48.670;6.184;2023-05-25T10:12:35;99564.84;;;21.08;38.80
50125;BME280;36023;48.670;6.184;2023-05-25T10:15:03;99564.84;;;21.08;38.99
50125;BME280;36023;48.670;6.184;2023-05-25T10:17:33;99553.41;;;21.09;38.93
50125;BME280;36023;48.670;6.184;2023-05-25T10:20:00;99556.03;;;21.09;38.84
50125;BME280;36023;48.670;6.184;2023-05-25T10:22:39;99563.94;;;21.09;39.07
50125;BME280;36023;48.670;6.184;2023-05-25T10:27:46;99558.59;;;21.11;39.18
50125;BME280;36023;48.670;6.184;2023-05-25T10:30:14;99566.59;;;21.09;38.91
50125;BME280;36023;48.670;6.184;2023-05-25T10:32:41;99560.38;;;21.10;39.15
50125;BME280;36023;48.670;6.184;2023-05-25T10:35:08;99570.91;;;21.10;39.50
50125;BME280;36023;48.670;6.184;2023-05-25T10:37:36;99565.66;;;21.10;39.37
50125;BME280;36023;48.670;6.184;2023-05-25T10:40:05;99569.97;;;21.11;39.21
50125;BME280;36023;48.670;6.184;2023-05-25T10:42:34;99567.34;;;21.11;39.24
50125;BME280;36023;48.670;6.184;2023-05-25T10:45:05;99563.00;;;21.10;39.41
50125;BME280;36023;48.670;6.184;2023-05-25T10:47:34;99564.72;;;21.11;39.43
50125;BME280;36023;48.670;6.184;2023-05-25T10:50:02;99557.66;;;21.12;39.36
50125;BME280;36023;48.670;6.184;2023-05-25T10:52:30;99569.03;;;21.12;39.58
50125;BME280;36023;48.670;6.184;2023-05-25T10:55:00;99558.50;;;21.12;39.42
50125;BME280;36023;48.670;6.184;2023-05-25T10:57:29;99558.50;;;21.12;39.27
50125;BME280;36023;48.670;6.184;2023-05-25T11:00:04;99560.19;;;21.13;39.52
50125;BME280;36023;48.670;6.184;2023-05-25T11:02:49;99561.03;;;21.14;39.65
50125;BME280;36023;48.670;6.184;2023-05-25T11:07:55;99556.63;;;21.14;39.78
50125;BME280;36023;48.670;6.184;2023-05-25T11:16:14;99553.91;;;21.16;39.78
50125;BME280;36023;48.670;6.184;2023-05-25T11:24:14;99543.31;;;21.18;39.87
50125;BME280;36023;48.670;6.184;2023-05-25T11:26:57;99548.47;;;21.19;39.91
50125;BME280;36023;48.670;6.184;2023-05-25T11:29:23;99537.09;;;21.19;40.09
50125;BME280;36023;48.670;6.184;2023-05-25T11:31:54;99538.78;;;21.20;40.13
50125;BME280;36023;48.670;6.184;2023-05-25T11:34:23;99526.47;;;21.20;40.12
50125;BME280;36023;48.670;6.184;2023-05-25T11:36:54;99534.38;;;21.20;40.12
50125;BME280;36023;48.670;6.184;2023-05-25T11:39:23;99541.31;;;21.21;40.02
50125;BME280;36023;48.670;6.184;2023-05-25T11:41:53;99529.94;;;21.21;40.26
50125;BME280;36023;48.670;6.184;2023-05-25T11:44:30;99528.06;;;21.23;40.15
50125;BME280;36023;48.670;6.184;2023-05-25T11:47:00;99551.69;;;21.24;40.22
50125;BME280;36023;48.670;6.184;2023-05-25T11:49:26;99541.16;;;21.24;40.22
50125;BME280;36023;48.670;6.184;2023-05-25T11:51:53;99546.34;;;21.26;40.25
50125;BME280;36023;48.670;6.184;2023-05-25T11:54:27;99551.47;;;21.29;39.75
50125;BME280;36023;48.670;6.184;2023-05-25T11:56:55;99552.41;;;21.28;39.52
50125;BME280;36023;48.670;6.184;2023-05-25T11:59:25;99554.19;;;21.27;39.50
50125;BME280;36023;48.670;6.184;2023-05-25T12:02:01;99548.03;;;21.27;39.09
50125;BME280;36023;48.670;6.184;2023-05-25T12:04:27;99541.94;;;21.26;38.90
50125;BME280;36023;48.670;6.184;2023-05-25T12:07:04;99539.28;;;21.26;38.40
50125;BME280;36023;48.670;6.184;2023-05-25T12:09:31;99530.53;;;21.26;38.53
50125;BME280;36023;48.670;6.184;2023-05-25T12:11:58;99534.13;;;21.25;38.23
50125;BME280;36023;48.670;6.184;2023-05-25T12:14:25;99536.75;;;21.25;38.05
50125;BME280;36023;48.670;6.184;2023-05-25T12:16:52;99538.44;;;21.26;37.73
50125;BME280;36023;48.670;6.184;2023-05-25T12:19:17;99536.75;;;21.25;38.08
50125;BME280;36023;48.670;6.184;2023-05-25T12:21:44;99534.03;;;21.26;37.59
50125;BME280;36023;48.670;6.184;2023-05-25T12:24:10;99541.09;;;21.26;37.29
50125;BME280;36023;48.670;6.184;2023-05-25T12:26:52;99548.97;;;21.26;37.39
50125;BME280;36023;48.670;6.184;2023-05-25T12:29:27;99532.25;;;21.27;37.10
50125;BME280;36023;48.670;6.184;2023-05-25T12:32:03;99539.25;;;21.28;37.08
50125;BME280;36023;48.670;6.184;2023-05-25T12:34:30;99536.66;;;21.26;36.90
50125;BME280;36023;48.670;6.184;2023-05-25T12:36:55;99551.56;;;21.27;36.90
50125;BME280;36023;48.670;6.184;2023-05-25T12:44:30;99542.63;;;21.30;36.46
50125;BME280;36023;48.670;6.184;2023-05-25T12:49:34;99547.03;;;21.29;36.89
50125;BME280;36023;48.670;6.184;2023-05-25T12:52:02;99548.66;;;21.32;36.36
50125;BME280;36023;48.670;6.184;2023-05-25T12:54:45;99549.44;;;21.34;36.44
50125;BME280;36023;48.670;6.184;2023-05-25T12:57:12;99543.31;;;21.33;36.29
50125;BME280;36023;48.670;6.184;2023-05-25T12:59:40;99552.06;;;21.34;36.02
50125;BME280;36023;48.670;6.184;2023-05-25T13:02:07;99543.22;;;21.35;36.00
50125;BME280;36023;48.670;6.184;2023-05-25T13:04:34;99541.44;;;21.35;35.85
50125;BME280;36023;48.670;6.184;2023-05-25T13:07:00;99536.25;;;21.34;35.87
50125;BME280;36023;48.670;6.184;2023-05-25T13:09:26;99538.81;;;21.35;35.75
50125;BME280;36023;48.670;6.184;2023-05-25T13:11:56;99544.91;;;21.36;35.74
50125;BME280;36023;48.670;6.184;2023-05-25T13:14:25;99543.97;;;21.37;35.74
50125;BME280;36023;48.670;6.184;2023-05-25T13:16:52;99548.31;;;21.38;35.91
50125;BME280;36023;48.670;6.184;2023-05-25T13:19:20;99534.19;;;21.39;35.77
50125;BME280;36023;48.670;6.184;2023-05-25T13:21:46;99527.13;;;21.39;35.53
50125;BME280;36023;48.670;6.184;2023-05-25T13:24:14;99542.09;;;21.39;35.91
50125;BME280;36023;48.670;6.184;2023-05-25T13:26:41;99528.91;;;21.39;35.59
50125;BME280;36023;48.670;6.184;2023-05-25T13:29:10;99530.66;;;21.40;35.74
50125;BME280;36023;48.670;6.184;2023-05-25T13:31:36;99532.34;;;21.41;35.38
50125;BME280;36023;48.670;6.184;2023-05-25T13:34:02;99526.22;;;21.40;35.32